Flight Track Log - Related Links

Times and Time Zones

All times are in EDT time to prevent confusion due to time zone crossing. See the EJA922 flight status page for this flight to view local times or setup timezone preferences in your user account.

Time Position Orientation Groundspeed Altitude Reporting Facility
EDT Latitude Longitude Course Direction KTS MPH feet Rate Location/Type
Sun 08:05:24 PM 18.3333 -64.9333 198° South 170 196 1,200  Level San Juan Center
Sun 08:06:24 PM 18.2833 -64.9500 198° South 230 265 3,800 2,500 Climbing San Juan Center
Sun 08:07:24 PM 18.2500 -65.0167 242° Southwest 270 311 6,200 2,331 Climbing San Juan Center
Sun 08:08:25 PM 18.2500 -65.1000 270° West 310 357 8,500 2,430 Climbing San Juan Center
Sun 08:09:25 PM 18.2833 -65.2000 289° West 310 357 11,100 2,000 Climbing San Juan Center
Sun 08:10:25 PM 18.3000 -65.2833 282° West 340 391 12,500 1,339 Climbing San Juan Center
Sun 08:11:26 PM 18.3333 -65.3833 289° West 380 437 13,800 1,636 Climbing San Juan Center
Sun 08:12:26 PM 18.3833 -65.4833 298° West 380 437 15,800 1,750 Climbing San Juan Center
Sun 08:13:26 PM 18.4667 -65.5667 317° Northwest 400 460 17,300 1,289 Climbing San Juan Center
Sun 08:14:27 PM 18.5333 -65.6667 305° West 410 472 18,400 1,140 Climbing San Juan Center
Sun 08:15:27 PM 18.6000 -65.7667 305° West 420 483 19,600 1,200 Climbing San Juan Center
Sun 08:16:27 PM 18.6667 -65.8667 305° West 430 495 20,800 1,140 Climbing San Juan Center
Sun 08:17:28 PM 18.7500 -65.9667 311° West 420 483 21,900 1,091 Climbing San Juan Center
Sun 08:18:28 PM 18.8167 -66.0667 305° West 430 495 23,000 950 Climbing San Juan Center
Sun 08:19:28 PM 18.8833 -66.1667 305° West 430 495 23,800 850 Climbing San Juan Center
Sun 08:20:28 PM 18.9500 -66.2667 305° West 440 506 24,700 900 Climbing San Juan Center
Sun 08:21:28 PM 19.0333 -66.3667 311° West 440 506 25,600 793 Climbing San Juan Center
Sun 08:22:29 PM 19.1000 -66.4833 301° West 440 506 26,300 793 Climbing San Juan Center
Sun 08:23:29 PM 19.1833 -66.5833 311° West 460 529 27,200 950 Climbing San Juan Center
Sun 08:24:29 PM 19.2667 -66.7000 307° West 450 518 28,200 1,041 Climbing San Juan Center
Sun 08:25:30 PM 19.3333 -66.8000 305° West 450 518 29,300 1,537 Climbing San Juan Center
Sun 08:26:30 PM 19.4167 -66.9000 311° West 440 506 31,300 1,900 Climbing San Juan Center
Sun 08:27:30 PM 19.4833 -67.0000 305° West 420 483 33,100 1,587 Climbing San Juan Center
Sun 08:28:31 PM 19.5500 -67.1000 305° West 420 483 34,500 1,388 Climbing San Juan Center
Sun 08:29:31 PM 19.6167 -67.2000 305° West 430 495 35,900 1,250 Climbing San Juan Center
Sun 08:30:31 PM 19.6833 -67.3000 305° West 430 495 37,000 1,041 Climbing San Juan Center
Sun 08:31:32 PM 19.7333 -67.3833 303° West 410 472 38,000 496 Climbing San Juan Center
Sun 08:32:32 PM 19.8000 -67.5167 298° West 430 495 38,000  Level San Juan Center
Sun 08:33:32 PM 19.8667 -67.6333 301° West 460 529 38,000 198 Level San Juan Center
Sun 08:34:33 PM 19.9000 -67.7667 285° West 430 495 38,400 447 Climbing San Juan Center
Sun 08:36:13 PM 19.7833 -67.9667 238° Southwest 470 541 39,200 407 Climbing San Juan Center
Sun 08:38:29 PM 19.6553 -68.2372 243° Southwest 437 503 40,000 245 Climbing Miami Center
Sun 08:39:29 PM 19.6267 -68.3619 256° West 438 504 40,000  Level Miami Center
Sun 08:40:29 PM 19.6728 -68.4819 292° West 417 480 40,000  Level Miami Center
Sun 08:41:29 PM 19.7514 -68.5894 308° West 428 493 40,000  Level Miami Center
Sun 08:42:29 PM 19.8358 -68.6922 311° West 443 510 40,000  Level Miami Center
Sun 08:43:29 PM 19.9306 -68.7944 315° West 464 534 40,000  Level Miami Center
Sun 08:44:29 PM 20.0169 -68.8994 311° West 482 555 40,000  Level Miami Center
Sun 08:45:29 PM 20.1056 -69.0047 312° West 487 560 40,000  Level Miami Center
Sun 08:46:29 PM 20.1964 -69.1119 312° West 487 560 40,000  Level Miami Center
Sun 08:47:29 PM 20.2869 -69.2172 313° West 492 566 40,000  Level Miami Center
Sun 08:48:29 PM 20.3753 -69.3228 312° West 492 566 40,000  Level Miami Center
Sun 08:49:29 PM 20.4658 -69.4281 313° West 492 566 40,000  Level Miami Center
Sun 08:50:29 PM 20.5539 -69.5317 312° West 492 566 40,000  Level Miami Center
Sun 08:51:29 PM 20.6422 -69.6378 312° West 487 560 40,000  Level Miami Center
Sun 08:52:29 PM 20.7306 -69.7436 312° West 487 560 40,000  Level Miami Center
Sun 08:53:29 PM 20.8186 -69.8478 312° West 487 560 40,000  Level Miami Center
Sun 08:54:29 PM 20.9044 -69.9519 311° West 482 555 40,000  Level Miami Center
Sun 08:55:29 PM 20.9925 -70.0561 312° West 482 555 40,000  Level Miami Center
Sun 08:56:29 PM 21.0806 -70.1628 312° West 482 555 40,000  Level Miami Center
Sun 08:57:29 PM 21.1706 -70.2672 313° West 482 555 40,000  Level Miami Center
Sun 08:58:29 PM 21.2586 -70.3764 311° West 482 555 40,000  Level Miami Center
Sun 08:59:29 PM 21.3483 -70.4833 312° West 482 555 40,000  Level Miami Center
Sun 09:00:29 PM 21.4361 -70.5883 312° West 482 555 40,000  Level Miami Center
Sun 09:01:29 PM 21.5239 -70.6956 311° West 482 555 40,000  Level Miami Center
Sun 09:02:29 PM 21.6181 -70.8072 312° West 492 566 40,000  Level Miami Center
Sun 09:03:29 PM 21.7078 -70.9147 312° West 492 566 40,000  Level Miami Center
Sun 09:04:29 PM 21.7997 -71.0267 312° West 492 566 40,000  Level Miami Center
Sun 09:05:29 PM 21.8894 -71.1367 311° West 492 566 40,000  Level Miami Center
Sun 09:06:29 PM 21.9811 -71.2492 311° West 492 566 40,000  Level Miami Center
Sun 09:07:29 PM 22.0728 -71.3594 312° West 498 573 40,000  Level Miami Center
Sun 09:08:29 PM 22.1625 -71.4700 311° West 498 573 40,000 150 Level Miami Center
Sun 09:09:29 PM 22.2519 -71.5806 311° West 493 567 40,300 400 Climbing Miami Center
Sun 09:10:29 PM 22.3411 -71.6914 311° West 493 567 40,800 500 Climbing Miami Center
Sun 09:11:29 PM 22.4306 -71.8003 312° West 493 567 41,300 500 Climbing Miami Center
Sun 09:12:29 PM 22.5175 -71.9069 311° West 493 567 41,800 450 Climbing Miami Center
Sun 09:13:29 PM 22.6067 -72.0203 310° West 493 567 42,200 350 Climbing Miami Center
Sun 09:14:29 PM 22.6936 -72.1297 311° West 493 567 42,500 300 Climbing Miami Center
Sun 09:15:29 PM 22.7825 -72.2367 312° West 493 567 42,800 250 Climbing Miami Center
Sun 09:16:29 PM 22.8672 -72.3442 311° West 488 562 43,000 100 Climbing Miami Center
Sun 09:17:29 PM 22.9561 -72.4583 310° West 488 562 43,000  Level Miami Center
Sun 09:18:29 PM 23.0469 -72.5633 313° West 493 567 43,000  Level Miami Center
Sun 09:19:29 PM 23.1336 -72.6756 310° West 493 567 43,000  Level Miami Center
Sun 09:20:29 PM 23.2161 -72.7881 309° West 488 562 43,000  Level Miami Center
Sun 09:21:29 PM 23.3172 -72.9003 314° West 493 567 43,000  Level Miami Center
Sun 09:22:29 PM 23.4100 -73.0106 313° West 493 567 43,000  Level Miami Center
Sun 09:23:29 PM 23.4964 -73.1258 309° West 493 567 43,000  Level Miami Center
Sun 09:24:29 PM 23.5828 -73.2411 309° West 493 567 43,000  Level Miami Center
Sun 09:25:29 PM 23.6753 -73.3517 312° West 493 567 43,000  Level Miami Center
Sun 09:26:29 PM 23.7614 -73.4672 309° West 498 573 43,000  Level Miami Center
Sun 09:27:29 PM 23.8539 -73.5783 312° West 493 567 43,000  Level Miami Center
Sun 09:28:29 PM 23.9419 -73.6919 310° West 493 567 43,000  Level Miami Center
Sun 09:29:29 PM 24.0319 -73.8081 310° West 493 567 43,000  Level Miami Center
Sun 09:30:29 PM 24.1158 -73.9197 309° West 493 567 43,000  Level Miami Center
Sun 09:31:29 PM 24.2058 -74.0339 311° West 498 573 43,000  Level Miami Center
Sun 09:32:35 PM 24.3000 -74.1503 312° West 498 573 43,000  Level Miami Center
Sun 09:33:30 PM 24.3875 -74.2669 309° West 492 566 43,000  Level Miami Center
Sun 09:34:30 PM 24.4794 -74.3839 311° West 499 574 43,000  Level Miami Center
Sun 09:35:32 PM 24.5692 -74.5008 310° West 506 582 43,000  Level Miami Center
Sun 09:36:29 PM 24.6586 -74.6181 310° West 501 577 43,000  Level Miami Center
Sun 09:37:31 PM 24.7503 -74.7353 311° West 501 577 43,000  Level Miami Center
Sun 09:38:32 PM 24.8397 -74.8550 309° West 506 582 43,000  Level Miami Center
Sun 09:39:30 PM 24.9333 -74.9703 312° West 500 575 43,000  Level Miami Center
Sun 09:40:31 PM 25.0308 -75.0789 315° West 500 575 43,000  Level Miami Center
Sun 09:41:30 PM 25.1261 -75.1878 314° West 500 575 43,000  Level Miami Center
Sun 09:42:30 PM 25.2256 -75.2989 315° West 494 568 43,000  Level Miami Center
Sun 09:43:30 PM 25.3206 -75.4081 314° West 494 568 43,000  Level Miami Center
Sun 09:44:32 PM 25.4200 -75.5150 316° Northwest 493 567 43,000  Level Miami Center
Sun 09:45:30 PM 25.5169 -75.6244 314° West 501 577 43,000  Level Miami Center
Sun 09:46:32 PM 25.6161 -75.7386 314° West 501 577 43,000  Level Miami Center
Sun 09:47:30 PM 25.7131 -75.8486 314° West 501 577 43,000  Level Miami Center
Sun 09:48:30 PM 25.8078 -75.9586 314° West 501 577 43,000  Level Miami Center
Sun 09:49:31 PM 25.9025 -76.0686 314° West 501 577 43,000  Level Miami Center
Sun 09:50:32 PM 26.0033 -76.1836 314° West 501 577 43,000  Level Miami Center
Sun 09:51:31 PM 26.0978 -76.2942 314° West 496 571 43,000  Level Miami Center
Sun 09:52:29 PM 26.1944 -76.4047 314° West 501 577 43,000  Level Miami Center
Sun 09:53:30 PM 26.2886 -76.5133 314° West 501 577 43,000  Level Miami Center
Sun 09:54:32 PM 26.3850 -76.6267 314° West 501 577 43,000  Level Miami Center
Sun 09:55:32 PM 26.4792 -76.7381 313° West 503 579 43,000  Level Miami Center
Sun 09:56:30 PM 26.5753 -76.8494 314° West 498 573 43,000  Level Miami Center
Sun 09:57:31 PM 26.6714 -76.9633 313° West 497 572 43,000  Level Miami Center
Sun 09:58:31 PM 26.7633 -77.0681 315° West 497 572 43,000  Level Miami Center
Sun 09:59:30 PM 26.8592 -77.1825 313° West 497 572 43,000  Level Miami Center
Sun 10:00:30 PM 26.9550 -77.3014 312° West 499 574 43,000  Level Miami Center
Sun 10:01:32 PM 27.0464 -77.4069 314° West 499 574 43,000  Level Miami Center
Sun 10:02:30 PM 27.1317 -77.5075 314° West 492 566 43,000  Level Miami Center
Sun 10:03:29 PM 27.2272 -77.6181 314° West 487 560 43,000  Level Miami Center
Sun 10:04:31 PM 27.3311 -77.7169 320° Northwest 492 566 43,000  Level Miami Center
Sun 10:05:32 PM 27.4392 -77.8114 322° Northwest 485 558 43,000  Level Miami Center
Sun 10:06:30 PM 27.5450 -77.9058 322° Northwest 490 564 43,000  Level Miami Center
Sun 10:07:30 PM 27.6508 -78.0006 322° Northwest 490 564 43,000  Level Miami Center
Sun 10:08:30 PM 27.7525 -78.0978 320° Northwest 490 564 43,000  Level Miami Center
Sun 10:09:31 PM 27.8622 -78.1906 323° Northwest 495 570 43,000  Level Miami Center
Sun 10:10:31 PM 27.9678 -78.2883 321° Northwest 495 570 43,000  Level Miami Center
Sun 10:11:32 PM 28.0733 -78.3836 321° Northwest 489 563 43,000  Level Miami Center
Sun 10:12:32 PM 28.1892 -78.4914 321° Northwest 494 568 43,000  Level Miami Center
Sun 10:13:30 PM 28.2903 -78.5847 321° Northwest 494 568 43,000  Level Miami Center
Sun 10:14:30 PM 28.3975 -78.6856 320° Northwest 494 568 43,000 -50 Level Miami Center
Sun 10:15:30 PM 28.4986 -78.7794 321° Northwest 494 568 42,900  Descending Miami Center
Sun 10:16:30 PM 28.6078 -78.8806 321° Northwest 494 568 43,000 50 Climbing Miami Center
Sun 10:17:31 PM 28.7086 -78.9769 320° Northwest 494 568 43,000  Level Miami Center
Sun 10:18:31 PM 28.8178 -79.0761 321° Northwest 494 568 43,000 203 Level Miami Center
Sun 10:19:29 PM 28.9206 -79.1731 320° Northwest 494 568 43,400 454 Climbing Miami Center
Sun 10:20:30 PM 29.0253 -79.2703 321° Northwest 494 568 43,900 506 Climbing Miami Center
Sun 10:22:03 PM 29.1731 -79.4064 321° Northwest 471 542 44,700 431 Climbing Jacksonville Center
Sun 10:23:03 PM 29.2758 -79.5050 320° Northwest 463 533 45,000 150 Climbing Jacksonville Center
Sun 10:24:03 PM 29.3744 -79.5969 321° Northwest 463 533 45,000  Level Jacksonville Center
Sun 10:25:03 PM 29.4814 -79.6983 320° Northwest 470 541 45,000  Level Jacksonville Center
Sun 10:26:03 PM 29.5817 -79.7931 321° Northwest 475 547 45,000  Level Jacksonville Center
Sun 10:27:03 PM 29.6972 -79.9064 320° Northwest 486 559 45,000  Level Jacksonville Center
Sun 10:28:03 PM 29.7994 -80.0039 320° Northwest 480 552 45,000  Level Jacksonville Center
Sun 10:29:03 PM 29.8997 -80.0989 321° Northwest 486 559 45,000  Level Jacksonville Center
Sun 10:30:03 PM 29.9981 -80.1992 319° Northwest 481 554 45,000  Level Jacksonville Center
Sun 10:31:03 PM 30.1022 -80.2972 321° Northwest 475 547 45,000  Level Jacksonville Center
Sun 10:32:03 PM 30.2025 -80.3956 320° Northwest 475 547 45,000  Level Jacksonville Center
Sun 10:33:03 PM 30.3067 -80.4939 321° Northwest 469 540 45,000  Level Jacksonville Center
Sun 10:34:03 PM 30.4067 -80.5925 320° Northwest 469 540 45,000  Level Jacksonville Center
Sun 10:35:03 PM 30.5000 -80.6817 321° Northwest 474 545 45,000  Level Jacksonville Center
Sun 10:36:03 PM 30.5997 -80.7783 320° Northwest 474 545 45,000  Level Jacksonville Center
Sun 10:37:03 PM 30.6972 -80.8753 319° Northwest 469 540 45,000  Level Jacksonville Center
Sun 10:38:03 PM 30.7969 -80.9722 320° Northwest 464 534 45,000  Level Jacksonville Center
Sun 10:39:03 PM 30.8967 -81.0697 320° Northwest 464 534 45,000  Level Jacksonville Center
Sun 10:40:03 PM 30.9961 -81.1669 320° Northwest 464 534 45,000  Level Jacksonville Center
Sun 10:41:03 PM 31.0933 -81.2647 319° Northwest 464 534 45,000  Level Jacksonville Center
Sun 10:42:03 PM 31.1928 -81.3650 319° Northwest 464 534 45,000  Level Jacksonville Center
Sun 10:43:03 PM 31.2919 -81.4631 320° Northwest 464 534 45,000  Level Jacksonville Center
Sun 10:44:03 PM 31.4036 -81.5539 325° Northwest 450 518 45,000  Level Jacksonville Center
Sun 10:45:03 PM 31.5108 -81.6083 337° Northwest 450 518 45,000  Level Jacksonville Center
Sun 10:46:03 PM 31.6428 -81.6675 339° North 459 528 45,000  Level Jacksonville Center
Sun 10:48:09 PM 31.9011 -81.7783 340° North 459 528 45,000  Level Atlanta Center
Sun 10:49:09 PM 32.0192 -81.8317 339° North 464 534 45,000  Level Atlanta Center
Sun 10:50:09 PM 32.1411 -81.8875 339° North 459 528 45,000  Level Atlanta Center
Sun 10:51:09 PM 32.2608 -81.9411 339° North 459 528 45,000  Level Atlanta Center
Sun 10:52:09 PM 32.3850 -81.9997 338° Northwest 459 528 45,000  Level Atlanta Center
Sun 10:53:09 PM 32.5092 -82.0536 340° North 459 528 45,000 150 Level Atlanta Center
Sun 10:54:09 PM 32.6311 -82.1100 339° North 464 534 45,300 400 Climbing Atlanta Center
Sun 10:55:09 PM 32.7492 -82.1792 334° Northwest 464 534 45,800 500 Climbing Atlanta Center
Sun 10:56:09 PM 32.8525 -82.2683 324° Northwest 464 534 46,300 500 Climbing Atlanta Center
Sun 10:57:09 PM 32.9542 -82.3556 324° Northwest 464 534 46,800 350 Climbing Atlanta Center
Sun 10:58:09 PM 33.0492 -82.4528 319° Northwest 453 521 47,000 100 Climbing Atlanta Center
Sun 10:59:09 PM 33.1403 -82.5503 318° Northwest 443 510 47,000  Level Atlanta Center
Sun 11:00:09 PM 33.2292 -82.6581 315° West 443 510 47,000  Level Atlanta Center
Sun 11:01:09 PM 33.3056 -82.7786 307° West 449 517 47,000  Level Atlanta Center
Sun 11:02:09 PM 33.3819 -82.8994 307° West 461 531 47,000  Level Atlanta Center
Sun 11:03:09 PM 33.4581 -83.0203 307° West 456 525 47,000  Level Atlanta Center
Sun 11:04:09 PM 33.5342 -83.1417 307° West 456 525 47,000  Level Atlanta Center
Sun 11:05:09 PM 33.5997 -83.2508 306° West 456 525 47,000  Level Atlanta Center
Sun 11:06:09 PM 33.6778 -83.3747 307° West 456 525 47,000  Level Atlanta Center
Sun 11:07:09 PM 33.7514 -83.4992 305° West 456 525 47,000  Level Atlanta Center
Sun 11:08:09 PM 33.8269 -83.6211 307° West 462 532 47,000  Level Atlanta Center
Sun 11:09:09 PM 33.9003 -83.7436 306° West 457 526 47,000  Level Atlanta Center
Sun 11:10:09 PM 33.9758 -83.8683 306° West 457 526 47,000  Level Atlanta Center
Sun 11:11:09 PM 34.0489 -83.9911 306° West 457 526 47,000 -200 Level Atlanta Center
Sun 11:12:09 PM 34.1261 -84.1167 307° West 457 526 46,600 -500 Descending Atlanta Center
Sun 11:13:09 PM 34.2031 -84.2447 306° West 462 532 46,000 -550 Descending Atlanta Center
Sun 11:14:09 PM 34.2800 -84.3756 305° West 475 547 45,500 -550 Descending Atlanta Center
Sun 11:15:09 PM 34.3589 -84.5069 306° West 480 552 44,900 -600 Descending Atlanta Center
Sun 11:16:09 PM 34.4336 -84.6381 305° West 475 547 44,300 -550 Descending Atlanta Center
Sun 11:17:09 PM 34.5164 -84.7800 305° West 470 541 43,800 -650 Descending Atlanta Center
Sun 11:18:09 PM 34.5928 -84.9067 306° West 475 547 43,000 -850 Descending Atlanta Center
Sun 11:19:09 PM 34.6628 -85.0186 307° West 464 534 42,100 -1,000 Descending Atlanta Center
Sun 11:20:09 PM 34.7597 -85.1461 313° West 464 534 41,000 -600 Descending Atlanta Center
Sun 11:21:09 PM 34.8567 -85.2614 316° Northwest 469 540 40,900 -1,809 Descending Atlanta Center
Sun 11:23:38 PM 35.1106 -85.5064 322° Northwest 486 559 34,700 -2,657 Descending Memphis Center
Sun 11:24:39 PM 35.2231 -85.6067 324° Northwest 491 565 31,600 -3,050 Descending Memphis Center
Sun 11:25:38 PM 35.3331 -85.7072 323° Northwest 491 565 28,600 -3,000 Descending Memphis Center
Sun 11:26:39 PM 35.4369 -85.8033 323° Northwest 485 558 25,600 -2,975 Descending Memphis Center
Sun 11:27:39 PM 35.5364 -85.9000 322° Northwest 474 545 22,600 -3,378 Descending Memphis Center
Sun 11:28:38 PM 35.6322 -86.0172 315° West 448 516 18,900 -3,479 Descending Memphis Center
Sun 11:29:38 PM 35.7067 -86.1183 312° West 431 496 15,700 -3,100 Descending Memphis Center
Sun 11:30:38 PM 35.7744 -86.2094 313° West 380 437 12,700 -2,350 Descending Memphis Center
Sun 11:31:38 PM 35.8397 -86.2958 313° West 352 405 11,000 -843 Descending Memphis Center
Sun 11:32:39 PM 35.9006 -86.3747 314° West 329 379 11,000 -500 Level Memphis Center
Sun 11:33:38 PM 35.9508 -86.4417 313° West 313 360 10,000 -1,350 Descending Memphis Center
Sun 11:34:39 PM 36.0053 -86.5133 313° West 293 337 8,300 -1,700 Descending Memphis Center
Sun 11:35:38 PM 36.0592 -86.5750 317° Northwest 278 320 6,600 -1,200 Descending Memphis Center
Sun 11:36:39 PM 36.1253 -86.5539 14° North 229 264 5,900 -1,150 Descending Memphis Center
Sun 11:37:38 PM 36.1892 -86.5278 18° North 234 269 4,300 -1,664 Descending Memphis Center
Sun 11:38:38 PM 36.2400 -86.5564 336° Northwest 205 236 2,600 -1,150 Descending Memphis Center
Sun 11:39:38 PM 36.2314 -86.6211 261° West 125 144 2,000 -450 Descending Memphis Center
Sun 11:40:38 PM 36.1842 -86.6386 197° South 136 157 1,700 -550 Descending Memphis Center
Sun 11:41:38 PM 36.1469 -86.6531 197° South 141 162 900 -800 Descending Memphis Center
Sun 11:43:00 PM 36.1245 -86.6782 349° North  Level Estimated
Sun 11:50:00 PM 36.1245 -86.6782 219° Southwest  Level Estimated
Sun 11:51:00 PM 36.1245 -86.6782 219° Southwest  Level Estimated
Sun 11:52:00 PM 36.1245 -86.6782 219° Southwest  Level Estimated
Sun 11:53:00 PM 36.1245 -86.6782 219° Southwest  Level Estimated
Sun 11:54:00 PM 36.1245 -86.6782 219° Southwest  Level Estimated
Sun 11:55:00 PM 36.1245 -86.6782 219° Southwest  Level Estimated
Sun 11:56:00 PM 36.1245 -86.6782 219° Southwest  Level Estimated
Sun 11:57:00 PM 36.1245 -86.6782 219° Southwest  Level Estimated
Sun 11:58:00 PM 36.1245 -86.6782 219° Southwest  Level Estimated

Login

Don't have an account? Register now (free) for customized features, flight alerts, and more!